sensor_id;sensor_type;location;lat;lon;timestamp;temperature;humidity
2849;DHT22;59355;52.416;13.412;2022-07-29T00:00:59;16.70;99.90
2849;DHT22;59355;52.416;13.412;2022-07-29T00:03:25;16.60;99.90
2849;DHT22;59355;52.416;13.412;2022-07-29T00:05:52;16.60;99.90
2849;DHT22;59355;52.416;13.412;2022-07-29T00:08:19;16.60;99.90
2849;DHT22;59355;52.416;13.412;2022-07-29T00:10:45;16.60;99.90
2849;DHT22;59355;52.416;13.412;2022-07-29T00:13:11;16.60;99.90
2849;DHT22;59355;52.416;13.412;2022-07-29T00:15:38;16.50;99.90
2849;DHT22;59355;52.416;13.412;2022-07-29T00:18:04;16.50;99.90
2849;DHT22;59355;52.416;13.412;2022-07-29T00:20:30;16.50;99.90
2849;DHT22;59355;52.416;13.412;2022-07-29T00:22:56;16.50;99.90
2849;DHT22;59355;52.416;13.412;2022-07-29T00:25:22;16.40;99.90
2849;DHT22;59355;52.416;13.412;2022-07-29T00:27:48;16.40;99.90
2849;DHT22;59355;52.416;13.412;2022-07-29T00:30:15;16.40;99.90
2849;DHT22;59355;52.416;13.412;2022-07-29T00:32:41;16.30;99.90
2849;DHT22;59355;52.416;13.412;2022-07-29T00:35:08;16.20;99.90
2849;DHT22;59355;52.416;13.412;2022-07-29T00:37:52;16.20;99.90
2849;DHT22;59355;52.416;13.412;2022-07-29T00:40:18;16.10;99.90
2849;DHT22;59355;52.416;13.412;2022-07-29T00:42:48;16.10;99.90
2849;DHT22;59355;52.416;13.412;2022-07-29T00:45:16;16.10;99.90
2849;DHT22;59355;52.416;13.412;2022-07-29T00:47:42;16.10;99.90
2849;DHT22;59355;52.416;13.412;2022-07-29T00:50:11;16.10;99.90
2849;DHT22;59355;52.416;13.412;2022-07-29T00:52:39;16.10;99.90
2849;DHT22;59355;52.416;13.412;2022-07-29T00:55:07;16.10;99.90
2849;DHT22;59355;52.416;13.412;2022-07-29T00:57:35;16.10;99.90
2849;DHT22;59355;52.416;13.412;2022-07-29T01:00:06;16.00;99.90
2849;DHT22;59355;52.416;13.412;2022-07-29T01:02:32;16.00;99.90
2849;DHT22;59355;52.416;13.412;2022-07-29T01:04:59;15.90;99.90
2849;DHT22;59355;52.416;13.412;2022-07-29T01:07:26;15.90;99.90
2849;DHT22;59355;52.416;13.412;2022-07-29T01:09:53;15.90;99.90
2849;DHT22;59355;52.416;13.412;2022-07-29T01:12:26;15.90;99.90
2849;DHT22;59355;52.416;13.412;2022-07-29T01:14:54;15.90;99.90
2849;DHT22;59355;52.416;13.412;2022-07-29T01:17:33;15.90;99.90
2849;DHT22;59355;52.416;13.412;2022-07-29T01:31:39;15.70;99.90
2849;DHT22;59355;52.416;13.412;2022-07-29T01:34:10;15.70;99.90
2849;DHT22;59355;52.416;13.412;2022-07-29T01:36:51;15.60;99.90
2849;DHT22;59355;52.416;13.412;2022-07-29T01:39:26;15.70;99.90
2849;DHT22;59355;52.416;13.412;2022-07-29T01:47:58;15.60;99.90
2849;DHT22;59355;52.416;13.412;2022-07-29T01:50:33;15.50;99.90
2849;DHT22;59355;52.416;13.412;2022-07-29T01:53:05;15.50;99.90
2849;DHT22;59355;52.416;13.412;2022-07-29T01:55:35;15.40;99.90
2849;DHT22;59355;52.416;13.412;2022-07-29T01:58:04;15.50;99.90
2849;DHT22;59355;52.416;13.412;2022-07-29T02:00:32;15.50;99.90
2849;DHT22;59355;52.416;13.412;2022-07-29T02:03:11;15.50;99.90
2849;DHT22;59355;52.416;13.412;2022-07-29T02:05:39;15.40;99.90
2849;DHT22;59355;52.416;13.412;2022-07-29T02:08:08;15.40;99.90
2849;DHT22;59355;52.416;13.412;2022-07-29T02:10:36;15.30;99.90
2849;DHT22;59355;52.416;13.412;2022-07-29T02:13:03;15.40;99.90
2849;DHT22;59355;52.416;13.412;2022-07-29T02:15:31;15.40;99.90
2849;DHT22;59355;52.416;13.412;2022-07-29T02:18:02;15.40;99.90
2849;DHT22;59355;52.416;13.412;2022-07-29T02:20:29;15.30;99.90
2849;DHT22;59355;52.416;13.412;2022-07-29T02:22:57;15.30;99.90
2849;DHT22;59355;52.416;13.412;2022-07-29T02:25:25;15.30;99.90
2849;DHT22;59355;52.416;13.412;2022-07-29T02:27:52;15.30;99.90
2849;DHT22;59355;52.416;13.412;2022-07-29T02:30:21;15.30;99.90
2849;DHT22;59355;52.416;13.412;2022-07-29T02:32:48;15.30;99.90
2849;DHT22;59355;52.416;13.412;2022-07-29T02:35:16;15.40;99.90
2849;DHT22;59355;52.416;13.412;2022-07-29T02:37:44;15.50;99.90
2849;DHT22;59355;52.416;13.412;2022-07-29T02:40:11;15.40;99.90
2849;DHT22;59355;52.416;13.412;2022-07-29T02:42:42;15.40;99.90
2849;DHT22;59355;52.416;13.412;2022-07-29T02:45:09;15.40;99.90
2849;DHT22;59355;52.416;13.412;2022-07-29T02:47:43;15.30;99.90
2849;DHT22;59355;52.416;13.412;2022-07-29T02:50:19;15.30;99.90
2849;DHT22;59355;52.416;13.412;2022-07-29T02:53:12;15.30;99.90
2849;DHT22;59355;52.416;13.412;2022-07-29T02:55:48;15.20;99.90
2849;DHT22;59355;52.416;13.412;2022-07-29T02:58:21;15.30;99.90
2849;DHT22;59355;52.416;13.412;2022-07-29T03:01:03;15.20;99.90
2849;DHT22;59355;52.416;13.412;2022-07-29T03:03:34;15.30;99.90
2849;DHT22;59355;52.416;13.412;2022-07-29T03:06:01;15.30;99.90
2849;DHT22;59355;52.416;13.412;2022-07-29T03:08:29;15.20;99.90
2849;DHT22;59355;52.416;13.412;2022-07-29T03:10:57;15.20;99.90
2849;DHT22;59355;52.416;13.412;2022-07-29T03:13:24;15.30;99.90
2849;DHT22;59355;52.416;13.412;2022-07-29T03:15:50;15.30;99.90
2849;DHT22;59355;52.416;13.412;2022-07-29T03:18:17;15.30;99.90
2849;DHT22;59355;52.416;13.412;2022-07-29T03:20:43;15.20;99.90
2849;DHT22;59355;52.416;13.412;2022-07-29T03:23:09;15.30;99.90
2849;DHT22;59355;52.416;13.412;2022-07-29T03:25:35;15.20;99.90
2849;DHT22;59355;52.416;13.412;2022-07-29T03:28:02;15.30;99.90
2849;DHT22;59355;52.416;13.412;2022-07-29T03:30:28;15.30;99.90
2849;DHT22;59355;52.416;13.412;2022-07-29T03:32:56;15.20;99.90
2849;DHT22;59355;52.416;13.412;2022-07-29T03:35:22;15.20;99.90
2849;DHT22;59355;52.416;13.412;2022-07-29T03:37:48;15.20;99.90
2849;DHT22;59355;52.416;13.412;2022-07-29T03:40:19;15.20;99.90
2849;DHT22;59355;52.416;13.412;2022-07-29T03:42:49;15.20;99.90
2849;DHT22;59355;52.416;13.412;2022-07-29T03:45:18;15.20;99.90
2849;DHT22;59355;52.416;13.412;2022-07-29T03:47:59;15.20;99.90
2849;DHT22;59355;52.416;13.412;2022-07-29T03:50:28;15.10;99.90
2849;DHT22;59355;52.416;13.412;2022-07-29T03:52:54;15.10;99.90
2849;DHT22;59355;52.416;13.412;2022-07-29T03:55:21;15.20;99.90
2849;DHT22;59355;52.416;13.412;2022-07-29T03:57:48;15.20;99.90
2849;DHT22;59355;52.416;13.412;2022-07-29T04:00:15;15.30;99.90
2849;DHT22;59355;52.416;13.412;2022-07-29T04:02:43;15.30;99.90
2849;DHT22;59355;52.416;13.412;2022-07-29T04:05:14;15.40;99.90
2849;DHT22;59355;52.416;13.412;2022-07-29T04:07:44;15.30;99.90
2849;DHT22;59355;52.416;13.412;2022-07-29T04:10:10;15.40;99.90
2849;DHT22;59355;52.416;13.412;2022-07-29T04:12:36;15.40;99.90
2849;DHT22;59355;52.416;13.412;2022-07-29T04:15:03;15.40;99.90
2849;DHT22;59355;52.416;13.412;2022-07-29T04:17:30;15.50;99.90
2849;DHT22;59355;52.416;13.412;2022-07-29T04:19:56;15.50;99.90
2849;DHT22;59355;52.416;13.412;2022-07-29T04:22:22;15.50;99.90
2849;DHT22;59355;52.416;13.412;2022-07-29T04:24:48;15.50;99.90
2849;DHT22;59355;52.416;13.412;2022-07-29T04:27:14;15.50;99.90
2849;DHT22;59355;52.416;13.412;2022-07-29T04:29:40;15.60;99.90
2849;DHT22;59355;52.416;13.412;2022-07-29T04:32:06;15.60;99.90
2849;DHT22;59355;52.416;13.412;2022-07-29T04:34:32;15.60;99.90
2849;DHT22;59355;52.416;13.412;2022-07-29T04:36:58;15.70;99.90
2849;DHT22;59355;52.416;13.412;2022-07-29T04:39:24;15.70;99.90
2849;DHT22;59355;52.416;13.412;2022-07-29T04:41:51;15.80;99.90
2849;DHT22;59355;52.416;13.412;2022-07-29T04:44:17;15.80;99.90
2849;DHT22;59355;52.416;13.412;2022-07-29T04:46:43;15.80;99.90
2849;DHT22;59355;52.416;13.412;2022-07-29T04:49:09;15.80;99.90
2849;DHT22;59355;52.416;13.412;2022-07-29T04:51:35;15.80;99.90
2849;DHT22;59355;52.416;13.412;2022-07-29T04:54:02;15.80;99.90
2849;DHT22;59355;52.416;13.412;2022-07-29T04:56:28;15.80;99.90
2849;DHT22;59355;52.416;13.412;2022-07-29T04:58:54;15.80;99.90
2849;DHT22;59355;52.416;13.412;2022-07-29T05:01:20;15.90;99.90
2849;DHT22;59355;52.416;13.412;2022-07-29T05:03:46;15.90;99.90
2849;DHT22;59355;52.416;13.412;2022-07-29T05:06:12;16.00;99.90
2849;DHT22;59355;52.416;13.412;2022-07-29T05:08:38;16.00;99.90
2849;DHT22;59355;52.416;13.412;2022-07-29T05:11:04;16.10;99.90
2849;DHT22;59355;52.416;13.412;2022-07-29T05:13:30;16.10;99.90
2849;DHT22;59355;52.416;13.412;2022-07-29T05:15:56;16.20;99.90
2849;DHT22;59355;52.416;13.412;2022-07-29T05:18:25;16.20;99.90
2849;DHT22;59355;52.416;13.412;2022-07-29T05:20:51;16.20;99.90
2849;DHT22;59355;52.416;13.412;2022-07-29T05:23:17;16.20;99.90
2849;DHT22;59355;52.416;13.412;2022-07-29T05:25:43;16.20;99.90
2849;DHT22;59355;52.416;13.412;2022-07-29T05:28:10;16.20;99.90
2849;DHT22;59355;52.416;13.412;2022-07-29T05:30:36;16.30;99.90
2849;DHT22;59355;52.416;13.412;2022-07-29T05:33:02;16.30;99.90
2849;DHT22;59355;52.416;13.412;2022-07-29T05:35:28;16.30;99.90
2849;DHT22;59355;52.416;13.412;2022-07-29T05:37:54;16.40;99.90
2849;DHT22;59355;52.416;13.412;2022-07-29T05:40:20;16.40;99.90
2849;DHT22;59355;52.416;13.412;2022-07-29T05:42:46;16.40;99.90
2849;DHT22;59355;52.416;13.412;2022-07-29T05:45:12;16.50;99.90
2849;DHT22;59355;52.416;13.412;2022-07-29T05:47:38;16.60;99.90
2849;DHT22;59355;52.416;13.412;2022-07-29T05:50:05;16.70;99.90
2849;DHT22;59355;52.416;13.412;2022-07-29T05:52:31;16.70;99.90
2849;DHT22;59355;52.416;13.412;2022-07-29T05:54:57;16.70;99.90
2849;DHT22;59355;52.416;13.412;2022-07-29T05:57:24;16.80;99.90
2849;DHT22;59355;52.416;13.412;2022-07-29T05:59:51;17.00;99.90
2849;DHT22;59355;52.416;13.412;2022-07-29T06:02:17;17.10;99.90
2849;DHT22;59355;52.416;13.412;2022-07-29T06:04:43;17.20;99.90
2849;DHT22;59355;52.416;13.412;2022-07-29T06:07:09;17.30;99.90
2849;DHT22;59355;52.416;13.412;2022-07-29T06:09:37;17.50;99.90
2849;DHT22;59355;52.416;13.412;2022-07-29T06:12:03;17.70;99.90
2849;DHT22;59355;52.416;13.412;2022-07-29T06:14:29;17.80;99.90
2849;DHT22;59355;52.416;13.412;2022-07-29T06:16:55;17.90;99.90
2849;DHT22;59355;52.416;13.412;2022-07-29T06:19:21;17.90;99.90
2849;DHT22;59355;52.416;13.412;2022-07-29T06:21:48;18.00;99.90
2849;DHT22;59355;52.416;13.412;2022-07-29T06:24:14;18.00;99.90
2849;DHT22;59355;52.416;13.412;2022-07-29T06:26:41;18.10;99.90
2849;DHT22;59355;52.416;13.412;2022-07-29T06:29:08;18.30;99.90
2849;DHT22;59355;52.416;13.412;2022-07-29T06:31:36;18.40;99.90
2849;DHT22;59355;52.416;13.412;2022-07-29T06:34:03;18.50;99.90
2849;DHT22;59355;52.416;13.412;2022-07-29T06:36:29;18.60;99.90
2849;DHT22;59355;52.416;13.412;2022-07-29T06:38:55;18.70;99.90
2849;DHT22;59355;52.416;13.412;2022-07-29T06:41:21;18.80;99.90
2849;DHT22;59355;52.416;13.412;2022-07-29T06:43:48;18.90;99.90
2849;DHT22;59355;52.416;13.412;2022-07-29T06:46:18;19.00;99.90
2849;DHT22;59355;52.416;13.412;2022-07-29T06:48:46;19.00;99.90
2849;DHT22;59355;52.416;13.412;2022-07-29T06:51:13;19.00;99.90
2849;DHT22;59355;52.416;13.412;2022-07-29T06:53:39;19.00;99.90
2849;DHT22;59355;52.416;13.412;2022-07-29T06:56:07;18.90;99.90
2849;DHT22;59355;52.416;13.412;2022-07-29T06:58:38;19.00;99.90
2849;DHT22;59355;52.416;13.412;2022-07-29T07:01:05;19.00;99.90
2849;DHT22;59355;52.416;13.412;2022-07-29T07:03:32;19.10;99.90
2849;DHT22;59355;52.416;13.412;2022-07-29T07:05:58;19.20;99.90
2849;DHT22;59355;52.416;13.412;2022-07-29T07:08:25;19.30;99.90
2849;DHT22;59355;52.416;13.412;2022-07-29T07:10:52;19.50;99.90
2849;DHT22;59355;52.416;13.412;2022-07-29T07:13:19;19.50;99.90
2849;DHT22;59355;52.416;13.412;2022-07-29T07:15:45;19.50;99.90
2849;DHT22;59355;52.416;13.412;2022-07-29T07:18:15;19.60;99.90
2849;DHT22;59355;52.416;13.412;2022-07-29T07:20:42;19.60;99.90
2849;DHT22;59355;52.416;13.412;2022-07-29T07:23:08;19.60;99.90
2849;DHT22;59355;52.416;13.412;2022-07-29T07:25:34;19.60;99.90
2849;DHT22;59355;52.416;13.412;2022-07-29T07:28:01;19.60;99.90
2849;DHT22;59355;52.416;13.412;2022-07-29T07:30:27;19.60;99.90
2849;DHT22;59355;52.416;13.412;2022-07-29T07:32:54;19.80;99.90
2849;DHT22;59355;52.416;13.412;2022-07-29T07:35:21;20.00;99.90
2849;DHT22;59355;52.416;13.412;2022-07-29T07:37:47;20.10;99.90
2849;DHT22;59355;52.416;13.412;2022-07-29T07:40:13;20.20;99.90
2849;DHT22;59355;52.416;13.412;2022-07-29T07:42:40;20.30;99.90
2849;DHT22;59355;52.416;13.412;2022-07-29T07:45:07;20.40;99.90
2849;DHT22;59355;52.416;13.412;2022-07-29T07:47:36;20.60;99.90
2849;DHT22;59355;52.416;13.412;2022-07-29T07:50:06;20.60;99.90
2849;DHT22;59355;52.416;13.412;2022-07-29T07:52:33;20.80;99.90
2849;DHT22;59355;52.416;13.412;2022-07-29T07:54:59;20.80;99.90
2849;DHT22;59355;52.416;13.412;2022-07-29T07:57:25;20.90;99.90
2849;DHT22;59355;52.416;13.412;2022-07-29T07:59:51;21.00;99.90
2849;DHT22;59355;52.416;13.412;2022-07-29T08:02:17;21.20;99.90
2849;DHT22;59355;52.416;13.412;2022-07-29T08:04:43;21.30;99.90
2849;DHT22;59355;52.416;13.412;2022-07-29T08:07:09;21.30;99.90
2849;DHT22;59355;52.416;13.412;2022-07-29T08:09:36;21.30;99.90
2849;DHT22;59355;52.416;13.412;2022-07-29T08:12:02;21.40;99.90
2849;DHT22;59355;52.416;13.412;2022-07-29T08:14:30;21.50;99.90
2849;DHT22;59355;52.416;13.412;2022-07-29T08:16:57;21.60;96.10
2849;DHT22;59355;52.416;13.412;2022-07-29T08:19:23;21.70;97.90
2849;DHT22;59355;52.416;13.412;2022-07-29T08:21:49;21.90;97.00
2849;DHT22;59355;52.416;13.412;2022-07-29T08:24:15;21.90;98.60
2849;DHT22;59355;52.416;13.412;2022-07-29T08:27:00;22.00;92.80
2849;DHT22;59355;52.416;13.412;2022-07-29T08:29:26;22.10;92.60
2849;DHT22;59355;52.416;13.412;2022-07-29T08:31:52;22.20;91.40
2849;DHT22;59355;52.416;13.412;2022-07-29T08:34:18;22.20;90.10
2849;DHT22;59355;52.416;13.412;2022-07-29T08:36:44;22.20;90.60
2849;DHT22;59355;52.416;13.412;2022-07-29T08:39:10;22.20;90.80
2849;DHT22;59355;52.416;13.412;2022-07-29T08:41:36;22.20;86.80
2849;DHT22;59355;52.416;13.412;2022-07-29T08:44:03;22.10;87.20
2849;DHT22;59355;52.416;13.412;2022-07-29T08:46:29;22.10;83.60
2849;DHT22;59355;52.416;13.412;2022-07-29T08:48:55;22.10;86.90
2849;DHT22;59355;52.416;13.412;2022-07-29T08:51:21;22.10;84.90
2849;DHT22;59355;52.416;13.412;2022-07-29T08:53:49;22.20;81.90
2849;DHT22;59355;52.416;13.412;2022-07-29T08:56:16;22.40;82.90
2849;DHT22;59355;52.416;13.412;2022-07-29T08:58:44;22.50;87.10
2849;DHT22;59355;52.416;13.412;2022-07-29T09:01:12;22.70;77.90
2849;DHT22;59355;52.416;13.412;2022-07-29T09:03:40;22.70;79.60
2849;DHT22;59355;52.416;13.412;2022-07-29T09:06:06;22.80;73.70
2849;DHT22;59355;52.416;13.412;2022-07-29T09:08:32;22.80;74.00
2849;DHT22;59355;52.416;13.412;2022-07-29T09:11:01;23.00;74.10
2849;DHT22;59355;52.416;13.412;2022-07-29T09:13:27;23.10;72.50
2849;DHT22;59355;52.416;13.412;2022-07-29T09:15:53;23.30;70.20
2849;DHT22;59355;52.416;13.412;2022-07-29T09:18:39;23.40;69.70
2849;DHT22;59355;52.416;13.412;2022-07-29T09:21:08;23.70;66.10
2849;DHT22;59355;52.416;13.412;2022-07-29T09:24:13;23.70;64.70
2849;DHT22;59355;52.416;13.412;2022-07-29T09:26:43;23.90;64.60
2849;DHT22;59355;52.416;13.412;2022-07-29T09:29:15;24.10;62.60
2849;DHT22;59355;52.416;13.412;2022-07-29T09:31:44;24.20;62.60
2849;DHT22;59355;52.416;13.412;2022-07-29T09:34:13;24.30;60.50
2849;DHT22;59355;52.416;13.412;2022-07-29T09:36:44;24.50;59.80
2849;DHT22;59355;52.416;13.412;2022-07-29T09:39:12;24.60;60.30
2849;DHT22;59355;52.416;13.412;2022-07-29T09:41:50;24.70;57.50
2849;DHT22;59355;52.416;13.412;2022-07-29T09:44:19;24.80;59.00
2849;DHT22;59355;52.416;13.412;2022-07-29T09:47:02;24.90;56.20
2849;DHT22;59355;52.416;13.412;2022-07-29T09:49:57;25.00;56.10
2849;DHT22;59355;52.416;13.412;2022-07-29T09:52:27;25.00;55.60
2849;DHT22;59355;52.416;13.412;2022-07-29T09:55:03;25.00;55.20
2849;DHT22;59355;52.416;13.412;2022-07-29T09:57:29;25.00;55.60
2849;DHT22;59355;52.416;13.412;2022-07-29T10:00:06;25.10;54.90
2849;DHT22;59355;52.416;13.412;2022-07-29T10:02:35;25.20;54.50
2849;DHT22;59355;52.416;13.412;2022-07-29T10:05:05;25.30;54.70
2849;DHT22;59355;52.416;13.412;2022-07-29T10:07:46;25.60;53.00
2849;DHT22;59355;52.416;13.412;2022-07-29T10:10:25;25.80;51.70
2849;DHT22;59355;52.416;13.412;2022-07-29T10:13:00;25.80;52.70
2849;DHT22;59355;52.416;13.412;2022-07-29T10:15:31;25.80;51.50
2849;DHT22;59355;52.416;13.412;2022-07-29T10:18:04;25.60;51.20
2849;DHT22;59355;52.416;13.412;2022-07-29T10:20:30;25.70;51.40
2849;DHT22;59355;52.416;13.412;2022-07-29T10:22:56;25.90;51.60
2849;DHT22;59355;52.416;13.412;2022-07-29T10:25:23;25.90;51.00
2849;DHT22;59355;52.416;13.412;2022-07-29T10:27:50;25.80;51.00
2849;DHT22;59355;52.416;13.412;2022-07-29T10:30:19;25.70;51.10
2849;DHT22;59355;52.416;13.412;2022-07-29T10:36:09;26.00;50.40
2849;DHT22;59355;52.416;13.412;2022-07-29T10:44:04;26.10;51.60
2849;DHT22;59355;52.416;13.412;2022-07-29T10:46:35;26.40;51.00
2849;DHT22;59355;52.416;13.412;2022-07-29T10:49:17;26.60;50.50
2849;DHT22;59355;52.416;13.412;2022-07-29T10:59:44;26.60;49.90
2849;DHT22;59355;52.416;13.412;2022-07-29T11:04:59;26.80;51.10
2849;DHT22;59355;52.416;13.412;2022-07-29T11:07:26;26.90;51.00
2849;DHT22;59355;52.416;13.412;2022-07-29T11:15:15;26.50;50.40
2849;DHT22;59355;52.416;13.412;2022-07-29T11:20:40;26.70;49.90
2849;DHT22;59355;52.416;13.412;2022-07-29T11:23:22;26.80;51.50
2849;DHT22;59355;52.416;13.412;2022-07-29T11:26:15;26.90;52.50
2849;DHT22;59355;52.416;13.412;2022-07-29T11:31:41;27.10;51.80
2849;DHT22;59355;52.416;13.412;2022-07-29T11:34:26;27.10;51.70
2849;DHT22;59355;52.416;13.412;2022-07-29T11:44:59;27.30;51.40
2849;DHT22;59355;52.416;13.412;2022-07-29T11:47:30;27.40;51.10
2849;DHT22;59355;52.416;13.412;2022-07-29T11:49:58;27.40;52.30
2849;DHT22;59355;52.416;13.412;2022-07-29T11:52:32;27.40;52.30
2849;DHT22;59355;52.416;13.412;2022-07-29T11:55:01;27.50;51.50
2849;DHT22;59355;52.416;13.412;2022-07-29T11:57:29;27.60;51.80
2849;DHT22;59355;52.416;13.412;2022-07-29T11:59:55;27.70;51.80
2849;DHT22;59355;52.416;13.412;2022-07-29T12:02:23;27.50;52.40
2849;DHT22;59355;52.416;13.412;2022-07-29T12:04:56;27.70;52.10
2849;DHT22;59355;52.416;13.412;2022-07-29T12:07:28;28.00;53.00
2849;DHT22;59355;52.416;13.412;2022-07-29T12:09:54;28.40;51.90
2849;DHT22;59355;52.416;13.412;2022-07-29T12:12:21;28.60;51.40
2849;DHT22;59355;52.416;13.412;2022-07-29T12:14:47;28.20;51.50
2849;DHT22;59355;52.416;13.412;2022-07-29T12:17:33;27.70;52.00
2849;DHT22;59355;52.416;13.412;2022-07-29T12:20:01;27.80;53.20
2849;DHT22;59355;52.416;13.412;2022-07-29T12:22:31;27.70;52.10
2849;DHT22;59355;52.416;13.412;2022-07-29T12:25:02;27.90;52.20
2849;DHT22;59355;52.416;13.412;2022-07-29T12:27:29;27.80;52.30
2849;DHT22;59355;52.416;13.412;2022-07-29T12:32:23;27.90;51.90
2849;DHT22;59355;52.416;13.412;2022-07-29T12:34:50;28.00;51.90
2849;DHT22;59355;52.416;13.412;2022-07-29T12:37:16;28.20;51.30
2849;DHT22;59355;52.416;13.412;2022-07-29T12:39:42;28.20;50.60
2849;DHT22;59355;52.416;13.412;2022-07-29T12:42:13;28.00;51.70
2849;DHT22;59355;52.416;13.412;2022-07-29T12:44:49;27.90;51.90
2849;DHT22;59355;52.416;13.412;2022-07-29T12:47:16;27.80;52.00
2849;DHT22;59355;52.416;13.412;2022-07-29T12:49:44;27.60;51.80
2849;DHT22;59355;52.416;13.412;2022-07-29T12:52:30;27.60;52.50
2849;DHT22;59355;52.416;13.412;2022-07-29T12:54:56;27.40;52.20
2849;DHT22;59355;52.416;13.412;2022-07-29T12:57:23;27.30;52.60
2849;DHT22;59355;52.416;13.412;2022-07-29T13:00:00;27.50;52.80
2849;DHT22;59355;52.416;13.412;2022-07-29T13:02:26;27.80;53.00
2849;DHT22;59355;52.416;13.412;2022-07-29T13:04:59;28.10;52.70
2849;DHT22;59355;52.416;13.412;2022-07-29T13:07:27;28.30;52.50
2849;DHT22;59355;52.416;13.412;2022-07-29T13:10:19;28.30;53.10
2849;DHT22;59355;52.416;13.412;2022-07-29T13:13:05;28.30;52.30
2849;DHT22;59355;52.416;13.412;2022-07-29T13:15:32;28.50;51.60
2849;DHT22;59355;52.416;13.412;2022-07-29T13:17:58;28.60;50.90
2849;DHT22;59355;52.416;13.412;2022-07-29T13:20:27;28.40;50.80
2849;DHT22;59355;52.416;13.412;2022-07-29T13:22:56;28.50;50.50
2849;DHT22;59355;52.416;13.412;2022-07-29T13:25:25;28.40;50.30
2849;DHT22;59355;52.416;13.412;2022-07-29T13:27:51;28.30;50.90
2849;DHT22;59355;52.416;13.412;2022-07-29T13:30:17;28.30;52.00
2849;DHT22;59355;52.416;13.412;2022-07-29T13:32:43;28.30;51.70
2849;DHT22;59355;52.416;13.412;2022-07-29T13:35:09;28.60;51.10
2849;DHT22;59355;52.416;13.412;2022-07-29T13:37:36;28.70;49.40
2849;DHT22;59355;52.416;13.412;2022-07-29T13:40:05;28.60;50.40
2849;DHT22;59355;52.416;13.412;2022-07-29T13:42:32;28.60;50.00
2849;DHT22;59355;52.416;13.412;2022-07-29T13:44:59;28.70;50.10
2849;DHT22;59355;52.416;13.412;2022-07-29T13:47:25;28.80;50.60
2849;DHT22;59355;52.416;13.412;2022-07-29T13:49:51;28.90;51.10
2849;DHT22;59355;52.416;13.412;2022-07-29T13:52:19;29.00;49.70
2849;DHT22;59355;52.416;13.412;2022-07-29T13:54:45;29.00;49.70
2849;DHT22;59355;52.416;13.412;2022-07-29T13:57:12;29.00;48.30
2849;DHT22;59355;52.416;13.412;2022-07-29T13:59:40;29.00;49.20
2849;DHT22;59355;52.416;13.412;2022-07-29T14:02:06;29.10;49.00
2849;DHT22;59355;52.416;13.412;2022-07-29T14:04:33;29.20;47.80
2849;DHT22;59355;52.416;13.412;2022-07-29T14:06:59;29.10;49.00
2849;DHT22;59355;52.416;13.412;2022-07-29T14:09:25;29.30;48.50
2849;DHT22;59355;52.416;13.412;2022-07-29T14:11:51;29.30;48.00
2849;DHT22;59355;52.416;13.412;2022-07-29T14:14:18;29.20;48.00
2849;DHT22;59355;52.416;13.412;2022-07-29T14:16:45;29.10;47.70
2849;DHT22;59355;52.416;13.412;2022-07-29T14:19:11;28.90;48.00
2849;DHT22;59355;52.416;13.412;2022-07-29T14:21:38;29.00;48.20
2849;DHT22;59355;52.416;13.412;2022-07-29T14:24:04;29.20;48.00
2849;DHT22;59355;52.416;13.412;2022-07-29T14:26:30;29.60;47.80
2849;DHT22;59355;52.416;13.412;2022-07-29T14:28:56;29.70;46.70
2849;DHT22;59355;52.416;13.412;2022-07-29T14:31:22;29.70;46.30
2849;DHT22;59355;52.416;13.412;2022-07-29T14:33:49;29.90;46.10
2849;DHT22;59355;52.416;13.412;2022-07-29T14:36:15;30.40;45.90
2849;DHT22;59355;52.416;13.412;2022-07-29T14:38:41;31.00;45.80
2849;DHT22;59355;52.416;13.412;2022-07-29T14:41:07;31.60;43.70
2849;DHT22;59355;52.416;13.412;2022-07-29T14:43:34;30.80;44.20
2849;DHT22;59355;52.416;13.412;2022-07-29T14:46:03;30.20;45.10
2849;DHT22;59355;52.416;13.412;2022-07-29T14:48:29;29.70;45.20
2849;DHT22;59355;52.416;13.412;2022-07-29T14:50:55;29.40;46.80
2849;DHT22;59355;52.416;13.412;2022-07-29T14:53:22;29.10;45.80
2849;DHT22;59355;52.416;13.412;2022-07-29T14:55:48;28.70;46.20
2849;DHT22;59355;52.416;13.412;2022-07-29T14:58:15;28.90;47.70
2849;DHT22;59355;52.416;13.412;2022-07-29T15:00:41;30.20;46.50
2849;DHT22;59355;52.416;13.412;2022-07-29T15:03:07;31.70;45.00
2849;DHT22;59355;52.416;13.412;2022-07-29T15:05:35;32.10;41.20
2849;DHT22;59355;52.416;13.412;2022-07-29T15:08:02;32.70;41.50
2849;DHT22;59355;52.416;13.412;2022-07-29T15:10:28;33.50;41.00
2849;DHT22;59355;52.416;13.412;2022-07-29T15:12:55;33.70;40.70
2849;DHT22;59355;52.416;13.412;2022-07-29T15:15:21;33.40;39.90
2849;DHT22;59355;52.416;13.412;2022-07-29T15:17:47;32.80;40.70
2849;DHT22;59355;52.416;13.412;2022-07-29T15:20:14;32.20;41.20
2849;DHT22;59355;52.416;13.412;2022-07-29T15:22:40;31.40;42.40
2849;DHT22;59355;52.416;13.412;2022-07-29T15:25:08;30.90;43.50
2849;DHT22;59355;52.416;13.412;2022-07-29T15:27:34;31.40;42.80
2849;DHT22;59355;52.416;13.412;2022-07-29T15:30:00;31.90;41.90
2849;DHT22;59355;52.416;13.412;2022-07-29T15:32:26;32.70;41.60
2849;DHT22;59355;52.416;13.412;2022-07-29T15:34:52;33.00;40.30
2849;DHT22;59355;52.416;13.412;2022-07-29T15:37:18;33.60;40.90
2849;DHT22;59355;52.416;13.412;2022-07-29T15:39:44;34.70;39.10
2849;DHT22;59355;52.416;13.412;2022-07-29T15:42:10;35.00;38.40
2849;DHT22;59355;52.416;13.412;2022-07-29T15:44:36;35.30;38.30
2849;DHT22;59355;52.416;13.412;2022-07-29T15:47:02;36.00;38.20
2849;DHT22;59355;52.416;13.412;2022-07-29T15:49:29;36.60;37.10
2849;DHT22;59355;52.416;13.412;2022-07-29T15:52:00;36.20;37.10
2849;DHT22;59355;52.416;13.412;2022-07-29T15:54:27;36.30;36.00
2849;DHT22;59355;52.416;13.412;2022-07-29T15:56:53;36.10;36.40
2849;DHT22;59355;52.416;13.412;2022-07-29T15:59:20;36.40;35.90
2849;DHT22;59355;52.416;13.412;2022-07-29T16:01:47;36.70;35.50
2849;DHT22;59355;52.416;13.412;2022-07-29T16:04:13;36.20;35.10
2849;DHT22;59355;52.416;13.412;2022-07-29T16:06:39;36.30;35.80
2849;DHT22;59355;52.416;13.412;2022-07-29T16:09:05;36.20;35.30
2849;DHT22;59355;52.416;13.412;2022-07-29T16:11:31;35.40;35.80
2849;DHT22;59355;52.416;13.412;2022-07-29T16:13:58;34.70;37.10
2849;DHT22;59355;52.416;13.412;2022-07-29T16:16:24;34.70;37.20
2849;DHT22;59355;52.416;13.412;2022-07-29T16:18:50;35.00;36.80
2849;DHT22;59355;52.416;13.412;2022-07-29T16:21:16;35.20;37.00
2849;DHT22;59355;52.416;13.412;2022-07-29T16:23:43;35.80;36.40
2849;DHT22;59355;52.416;13.412;2022-07-29T16:26:09;36.60;35.70
2849;DHT22;59355;52.416;13.412;2022-07-29T16:28:35;36.40;34.50
2849;DHT22;59355;52.416;13.412;2022-07-29T16:31:01;35.80;35.50
2849;DHT22;59355;52.416;13.412;2022-07-29T16:33:27;35.20;35.80
2849;DHT22;59355;52.416;13.412;2022-07-29T16:35:53;34.90;36.30